createdAt,value
2019-03-12T00:00:04.501Z,1018.87
2019-03-12T00:01:04.461Z,1018.90
2019-03-12T00:02:04.449Z,1018.88
2019-03-12T00:03:04.442Z,1018.85
2019-03-12T00:04:04.430Z,1018.86
2019-03-12T00:05:04.441Z,1018.88
2019-03-12T00:06:04.410Z,1018.86
2019-03-12T00:07:04.395Z,1018.87
2019-03-12T00:08:04.384Z,1018.88
2019-03-12T00:09:04.375Z,1018.84
2019-03-12T00:10:04.391Z,1018.82
2019-03-12T00:11:04.350Z,1018.86
2019-03-12T00:12:04.340Z,1018.86
2019-03-12T00:13:04.329Z,1018.90
2019-03-12T00:14:04.318Z,1018.91
2019-03-12T00:15:04.333Z,1018.93
2019-03-12T00:16:04.299Z,1018.98
2019-03-12T00:17:04.284Z,1018.94
2019-03-12T00:18:04.277Z,1018.98
2019-03-12T00:19:04.264Z,1018.92
2019-03-12T00:20:04.276Z,1019.00
2019-03-12T00:21:04.242Z,1018.98
2019-03-12T00:22:04.233Z,1018.96
2019-03-12T00:23:04.217Z,1018.98
2019-03-12T00:24:04.207Z,1019.02
2019-03-12T00:25:04.255Z,1019.05
2019-03-12T00:26:04.185Z,1019.01
2019-03-12T00:27:04.173Z,1019.00
2019-03-12T00:28:04.161Z,1019.01
2019-03-12T00:29:04.159Z,1019.00
2019-03-12T00:30:04.165Z,1019.03
2019-03-12T00:31:04.130Z,1019.05
2019-03-12T00:32:04.116Z,1019.07
2019-03-12T00:33:04.104Z,1019.08
2019-03-12T00:34:04.092Z,1019.05
2019-03-12T00:35:04.086Z,1019.06
2019-03-12T00:36:04.098Z,1019.01
2019-03-12T00:37:04.061Z,1018.99
2019-03-12T00:38:04.049Z,1018.97
2019-03-12T00:39:04.035Z,1018.97
2019-03-12T00:40:04.032Z,1018.89
2019-03-12T00:41:04.040Z,1018.91
2019-03-12T00:42:04.001Z,1018.90
2019-03-12T00:43:03.991Z,1018.93
2019-03-12T00:44:03.979Z,1018.89
2019-03-12T00:45:03.970Z,1018.89
2019-03-12T00:46:03.985Z,1018.92
2019-03-12T00:47:03.946Z,1018.87
2019-03-12T00:48:03.935Z,1018.84
2019-03-12T00:49:03.924Z,1018.88
2019-03-12T00:50:03.912Z,1018.88
2019-03-12T00:51:03.930Z,1018.83
2019-03-12T00:52:03.893Z,1018.86
2019-03-12T00:53:03.881Z,1018.86
2019-03-12T00:54:03.869Z,1018.78
2019-03-12T00:55:03.859Z,1018.83
2019-03-12T00:56:03.871Z,1018.83
2019-03-12T00:57:03.839Z,1018.81
2019-03-12T00:58:03.825Z,1018.84
2019-03-12T00:59:03.814Z,1018.79
2019-03-12T01:00:03.801Z,1018.79
2019-03-12T01:01:03.824Z,1018.71
2019-03-12T01:02:03.780Z,1018.73
2019-03-12T01:03:03.769Z,1018.77
2019-03-12T01:04:03.754Z,1018.67
2019-03-12T01:05:03.746Z,1018.70
2019-03-12T01:06:03.758Z,1018.68
2019-03-12T01:07:03.722Z,1018.73
2019-03-12T01:08:03.713Z,1018.72
2019-03-12T01:09:03.700Z,1018.69
2019-03-12T01:10:03.687Z,1018.64
2019-03-12T01:11:03.703Z,1018.63
2019-03-12T01:12:03.671Z,1018.63
2019-03-12T01:13:03.653Z,1018.65
2019-03-12T01:14:03.643Z,1018.64
2019-03-12T01:15:03.631Z,1018.62
2019-03-12T01:16:03.647Z,1018.63
2019-03-12T01:17:03.610Z,1018.63
2019-03-12T01:18:03.601Z,1018.64
2019-03-12T01:19:03.587Z,1018.63
2019-03-12T01:20:03.575Z,1018.54
2019-03-12T01:21:03.593Z,1018.53
2019-03-12T01:22:03.553Z,1018.57
2019-03-12T01:23:03.543Z,1018.61
2019-03-12T01:24:03.530Z,1018.60
2019-03-12T01:25:03.519Z,1018.64
2019-03-12T01:26:03.538Z,1018.62
2019-03-12T01:27:03.501Z,1018.66
2019-03-12T01:28:03.489Z,1018.59
2019-03-12T01:29:03.474Z,1018.57
2019-03-12T01:30:03.466Z,1018.57
2019-03-12T01:31:03.456Z,1018.61
2019-03-12T01:32:03.466Z,1018.58
2019-03-12T01:33:03.428Z,1018.57
2019-03-12T01:34:03.517Z,1018.60
2019-03-12T01:35:03.409Z,1018.52
2019-03-12T01:36:03.398Z,1018.58
2019-03-12T01:37:03.414Z,1018.55
2019-03-12T01:38:03.381Z,1018.55
2019-03-12T01:39:03.374Z,1018.47
2019-03-12T01:40:03.352Z,1018.46
2019-03-12T01:41:03.342Z,1018.45
2019-03-12T01:42:03.352Z,1018.49
2019-03-12T01:43:03.319Z,1018.47
2019-03-12T01:44:03.306Z,1018.46
2019-03-12T01:45:03.298Z,1018.47
2019-03-12T01:46:03.283Z,1018.45
2019-03-12T01:47:03.302Z,1018.43
2019-03-12T01:48:03.268Z,1018.48
2019-03-12T01:49:03.343Z,1018.45
2019-03-12T01:50:03.242Z,1018.39
2019-03-12T01:51:03.235Z,1018.38
2019-03-12T01:52:03.274Z,1018.37
2019-03-12T01:53:03.204Z,1018.43
2019-03-12T01:54:03.193Z,1018.36
2019-03-12T01:55:03.185Z,1018.40
2019-03-12T01:56:03.173Z,1018.40
2019-03-12T01:57:03.189Z,1018.37
2019-03-12T01:58:03.148Z,1018.36
2019-03-12T01:59:03.140Z,1018.35
2019-03-12T02:00:03.126Z,1018.37
2019-03-12T02:01:03.117Z,1018.36
2019-03-12T02:02:03.128Z,1018.36
2019-03-12T02:03:03.100Z,1018.33
2019-03-12T02:04:03.084Z,1018.35
2019-03-12T02:05:03.071Z,1018.34
2019-03-12T02:06:03.059Z,1018.35
2019-03-12T02:07:03.075Z,1018.33
2019-03-12T02:08:03.037Z,1018.34
2019-03-12T02:09:03.026Z,1018.36
2019-03-12T02:10:03.014Z,1018.37
2019-03-12T02:11:03.006Z,1018.42
2019-03-12T02:12:03.018Z,1018.32
2019-03-12T02:13:02.980Z,1018.30
2019-03-12T02:14:02.969Z,1018.26
2019-03-12T02:15:02.959Z,1018.29
2019-03-12T02:16:02.947Z,1018.29
2019-03-12T02:17:02.960Z,1018.31
2019-03-12T02:18:02.925Z,1018.31
2019-03-12T02:19:02.913Z,1018.23
2019-03-12T02:20:02.907Z,1018.24
2019-03-12T02:21:02.894Z,1018.27
2019-03-12T02:22:02.880Z,1018.18
2019-03-12T02:23:02.892Z,1018.17
2019-03-12T02:24:02.856Z,1018.16
2019-03-12T02:25:02.844Z,1018.13
2019-03-12T02:26:02.833Z,1018.13
2019-03-12T02:27:02.830Z,1018.14
2019-03-12T02:28:02.839Z,1018.13
2019-03-12T02:29:02.801Z,1018.14
2019-03-12T02:30:02.790Z,1018.15
2019-03-12T02:31:02.785Z,1018.18
2019-03-12T02:32:02.765Z,1018.13
2019-03-12T02:33:02.785Z,1018.14
2019-03-12T02:34:02.749Z,1018.15
2019-03-12T02:35:02.733Z,1018.14
2019-03-12T02:36:02.723Z,1018.15
2019-03-12T02:37:02.718Z,1018.11
2019-03-12T02:38:02.729Z,1018.07
2019-03-12T02:39:02.688Z,1018.06
2019-03-12T02:40:02.678Z,1018.06
2019-03-12T02:41:02.664Z,1018.00
2019-03-12T02:42:02.676Z,1017.95
2019-03-12T02:43:02.671Z,1017.94
2019-03-12T02:44:02.632Z,1017.97
2019-03-12T02:45:02.642Z,1017.92
2019-03-12T02:46:02.610Z,1017.87
2019-03-12T02:47:02.616Z,1017.83
2019-03-12T02:48:02.612Z,1017.94
2019-03-12T02:49:02.580Z,1017.90
2019-03-12T02:50:02.566Z,1017.89
2019-03-12T02:51:02.561Z,1017.91
2019-03-12T02:52:02.541Z,1017.93
2019-03-12T02:53:02.696Z,1017.93
2019-03-12T02:54:02.520Z,1017.96
2019-03-12T02:55:02.512Z,1017.96
2019-03-12T02:56:02.506Z,1017.95
2019-03-12T02:57:02.496Z,1017.96
2019-03-12T02:58:02.503Z,1017.94
2019-03-12T02:59:02.479Z,1017.93
2019-03-12T03:00:02.454Z,1017.86
2019-03-12T03:01:02.441Z,1017.90
2019-03-12T03:02:02.432Z,1017.88
2019-03-12T03:03:02.449Z,1017.89
2019-03-12T03:04:02.415Z,1017.90
2019-03-12T03:05:02.395Z,1017.87
2019-03-12T03:06:02.386Z,1017.95
2019-03-12T03:07:02.376Z,1017.98
2019-03-12T03:08:02.405Z,1017.94
2019-03-12T03:09:02.353Z,1017.97
2019-03-12T03:10:02.341Z,1017.90
2019-03-12T03:11:02.330Z,1017.94
2019-03-12T03:12:02.320Z,1017.92
2019-03-12T03:13:02.311Z,1017.88
2019-03-12T03:14:02.333Z,1017.93
2019-03-12T03:15:02.284Z,1017.95
2019-03-12T03:16:02.271Z,1017.91
2019-03-12T03:17:02.277Z,1017.89
2019-03-12T03:18:02.254Z,1017.90
2019-03-12T03:19:02.281Z,1017.90
2019-03-12T03:20:02.246Z,1017.85
2019-03-12T03:21:02.241Z,1017.91
2019-03-12T03:22:02.207Z,1017.90
2019-03-12T03:23:02.194Z,1017.92
2019-03-12T03:24:02.213Z,1017.91
2019-03-12T03:25:02.175Z,1017.88
2019-03-12T03:26:02.160Z,1017.93
2019-03-12T03:27:02.162Z,1017.94
2019-03-12T03:28:02.142Z,1017.93
2019-03-12T03:29:02.168Z,1017.90
2019-03-12T03:30:02.117Z,1017.91
2019-03-12T03:31:02.111Z,1017.89
2019-03-12T03:32:02.104Z,1017.91
2019-03-12T03:33:02.089Z,1017.90
2019-03-12T03:34:02.097Z,1017.86
2019-03-12T03:35:02.066Z,1017.85
2019-03-12T03:36:02.052Z,1017.87
2019-03-12T03:37:02.039Z,1017.82
2019-03-12T03:38:02.035Z,1017.80
2019-03-12T03:39:02.040Z,1017.79
2019-03-12T03:40:02.007Z,1017.82
2019-03-12T03:41:01.992Z,1017.76
2019-03-12T03:42:01.994Z,1017.76
2019-03-12T03:43:01.980Z,1017.74
2019-03-12T03:44:01.982Z,1017.69
2019-03-12T03:45:01.955Z,1017.74
2019-03-12T03:46:02.027Z,1017.73
2019-03-12T03:47:01.926Z,1017.66
2019-03-12T03:48:01.916Z,1017.67
2019-03-12T03:49:01.933Z,1017.69
2019-03-12T03:50:01.911Z,1017.68
2019-03-12T03:51:01.881Z,1017.72
2019-03-12T03:52:01.879Z,1017.63
2019-03-12T03:53:01.886Z,1017.66
2019-03-12T03:54:01.876Z,1017.67
2019-03-12T03:55:01.839Z,1017.58
2019-03-12T03:56:01.825Z,1017.61
2019-03-12T03:57:01.812Z,1017.58
2019-03-12T03:58:01.807Z,1017.56
2019-03-12T03:59:01.815Z,1017.57
2019-03-12T04:00:01.780Z,1017.57
2019-03-12T04:01:01.771Z,1017.57
2019-03-12T04:02:01.757Z,1017.61
2019-03-12T04:03:01.753Z,1017.53
2019-03-12T04:04:01.740Z,1017.51
2019-03-12T04:05:01.747Z,1017.48
2019-03-12T04:06:01.720Z,1017.52
2019-03-12T04:07:01.721Z,1017.44
2019-03-12T04:08:01.693Z,1017.50
2019-03-12T04:09:01.679Z,1017.43
2019-03-12T04:10:01.773Z,1017.48
2019-03-12T04:11:01.662Z,1017.42
2019-03-12T04:12:01.648Z,1017.46
2019-03-12T04:13:01.641Z,1017.42
2019-03-12T04:14:01.624Z,1017.42
2019-03-12T04:15:01.643Z,1017.41
2019-03-12T04:16:01.658Z,1017.38
2019-03-12T04:17:01.589Z,1017.36
2019-03-12T04:18:01.577Z,1017.32
2019-03-12T04:19:01.568Z,1017.30
2019-03-12T04:20:01.585Z,1017.32
2019-03-12T04:21:01.547Z,1017.22
2019-03-12T04:22:01.543Z,1017.19
2019-03-12T04:23:01.522Z,1017.18
2019-03-12T04:24:01.511Z,1017.18
2019-03-12T04:25:01.535Z,1017.17
2019-03-12T04:26:01.489Z,1017.15
2019-03-12T04:27:01.477Z,1017.16
2019-03-12T04:28:01.470Z,1017.14
2019-03-12T04:29:01.460Z,1017.18
2019-03-12T04:30:01.469Z,1017.21
2019-03-12T04:31:01.433Z,1017.16
2019-03-12T04:32:01.421Z,1017.20
2019-03-12T04:33:01.415Z,1017.14
2019-03-12T04:34:01.402Z,1017.18
2019-03-12T04:35:01.439Z,1017.13
2019-03-12T04:36:01.376Z,1017.15
2019-03-12T04:37:01.371Z,1017.12
2019-03-12T04:38:01.352Z,1017.03
2019-03-12T04:39:01.339Z,1017.05
2019-03-12T04:40:01.360Z,1017.05
2019-03-12T04:41:01.318Z,1017.05
2019-03-12T04:42:01.313Z,1017.02
2019-03-12T04:43:01.295Z,1017.01
2019-03-12T04:44:01.285Z,1017.05
2019-03-12T04:45:01.299Z,1017.02
2019-03-12T04:46:01.272Z,1017.00
2019-03-12T04:47:01.253Z,1017.02
2019-03-12T04:48:01.240Z,1017.01
2019-03-12T04:49:01.228Z,1016.99
2019-03-12T04:50:01.241Z,1016.98
2019-03-12T04:51:01.217Z,1017.01
2019-03-12T04:52:01.194Z,1016.96
2019-03-12T04:53:01.182Z,1016.99
2019-03-12T04:54:01.175Z,1016.94
2019-03-12T04:55:01.187Z,1016.93
2019-03-12T04:56:01.154Z,1016.99
2019-03-12T04:57:01.139Z,1016.94
2019-03-12T04:58:01.129Z,1016.89
2019-03-12T04:59:01.118Z,1016.87
2019-03-12T05:00:01.110Z,1016.83
2019-03-12T05:01:01.124Z,1016.81
2019-03-12T05:02:01.083Z,1016.79
2019-03-12T05:03:01.074Z,1016.77
2019-03-12T05:04:01.061Z,1016.75
2019-03-12T05:05:01.053Z,1016.72
2019-03-12T05:06:01.060Z,1016.71
2019-03-12T05:07:01.027Z,1016.77
2019-03-12T05:08:01.029Z,1016.71
2019-03-12T05:09:01.004Z,1016.68
2019-03-12T05:10:00.992Z,1016.61
2019-03-12T05:11:01.011Z,1016.73
2019-03-12T05:12:00.976Z,1016.65
2019-03-12T05:13:00.962Z,1016.67
2019-03-12T05:14:00.948Z,1016.63
2019-03-12T05:15:00.936Z,1016.61
2019-03-12T05:16:00.952Z,1016.63
2019-03-12T05:17:00.919Z,1016.56
2019-03-12T05:18:00.903Z,1016.54
2019-03-12T05:19:00.892Z,1016.56
2019-03-12T05:20:00.879Z,1016.52
2019-03-12T05:21:00.892Z,1016.48
2019-03-12T05:22:00.859Z,1016.45
2019-03-12T05:23:00.851Z,1016.45
2019-03-12T05:24:00.838Z,1016.44
2019-03-12T05:25:00.828Z,1016.44
2019-03-12T05:26:00.838Z,1016.42
2019-03-12T05:27:00.803Z,1016.44
2019-03-12T05:28:00.836Z,1016.36
2019-03-12T05:29:00.783Z,1016.42
2019-03-12T05:30:00.769Z,1016.43
2019-03-12T05:31:00.785Z,1016.40
2019-03-12T05:32:00.746Z,1016.46
2019-03-12T05:33:00.735Z,1016.36
2019-03-12T05:34:00.722Z,1016.35
2019-03-12T05:35:00.717Z,1016.34
2019-03-12T05:36:00.727Z,1016.27
2019-03-12T05:37:00.740Z,1016.31
2019-03-12T05:38:00.691Z,1016.32
2019-03-12T05:39:00.667Z,1016.32
2019-03-12T05:40:00.658Z,1016.26
2019-03-12T05:41:00.671Z,1016.29
2019-03-12T05:42:00.634Z,1016.31
2019-03-12T05:43:00.639Z,1016.31
2019-03-12T05:44:00.612Z,1016.26
2019-03-12T05:45:00.619Z,1016.29
2019-03-12T05:46:00.615Z,1016.24
2019-03-12T05:47:00.578Z,1016.25
2019-03-12T05:48:00.569Z,1016.30
2019-03-12T05:49:00.555Z,1016.28
2019-03-12T05:50:00.546Z,1016.34
2019-03-12T05:51:00.534Z,1016.34
2019-03-12T05:52:00.553Z,1016.32
2019-03-12T05:53:00.510Z,1016.28
2019-03-12T05:54:00.515Z,1016.31
2019-03-12T05:55:00.491Z,1016.31
2019-03-12T05:56:00.478Z,1016.30
2019-03-12T05:57:00.495Z,1016.31
2019-03-12T05:58:00.455Z,1016.33
2019-03-12T05:59:00.452Z,1016.33
2019-03-12T06:00:00.535Z,1016.27
2019-03-12T06:01:00.420Z,1016.27
2019-03-12T06:02:00.441Z,1016.21
2019-03-12T06:03:00.398Z,1016.25
2019-03-12T06:04:00.388Z,1016.21
2019-03-12T06:05:00.440Z,1016.22
2019-03-12T06:06:00.368Z,1016.22
2019-03-12T06:07:00.392Z,1016.22
2019-03-12T06:08:00.343Z,1016.15
2019-03-12T06:09:00.332Z,1016.16
2019-03-12T06:10:00.417Z,1016.14
2019-03-12T06:11:00.316Z,1016.14
2019-03-12T06:12:00.323Z,1016.15
2019-03-12T06:13:00.285Z,1016.12
2019-03-12T06:14:00.275Z,1016.07
2019-03-12T06:15:00.406Z,1016.07
2019-03-12T06:16:00.252Z,1016.12
2019-03-12T06:17:00.270Z,1016.07
2019-03-12T06:18:00.232Z,1016.03
2019-03-12T06:19:00.220Z,1016.05
2019-03-12T06:20:00.363Z,1015.99
2019-03-12T06:21:00.201Z,1015.93
2019-03-12T06:22:00.211Z,1015.96
2019-03-12T06:23:00.173Z,1015.93
2019-03-12T06:24:00.162Z,1015.98
2019-03-12T06:25:00.382Z,1015.90
2019-03-12T06:26:00.144Z,1015.92
2019-03-12T06:27:00.153Z,1015.92
2019-03-12T06:28:00.120Z,1015.91
2019-03-12T06:29:00.108Z,1015.85
2019-03-12T06:30:00.096Z,1015.85
2019-03-12T06:31:00.085Z,1015.83
2019-03-12T06:32:00.100Z,1015.81
2019-03-12T06:33:00.068Z,1015.81
2019-03-12T06:34:00.052Z,1015.82
2019-03-12T06:35:00.039Z,1015.82
2019-03-12T06:36:00.029Z,1015.74
2019-03-12T06:37:00.019Z,1015.74
2019-03-12T06:38:00.028Z,1015.75
2019-03-12T06:38:59.993Z,1015.70
2019-03-12T06:39:59.989Z,1015.66
2019-03-12T06:40:59.972Z,1015.63
2019-03-12T06:41:59.962Z,1015.61
2019-03-12T06:42:59.978Z,1015.58
2019-03-12T06:43:59.936Z,1015.58
2019-03-12T06:44:59.927Z,1015.53
2019-03-12T06:45:59.915Z,1015.51
2019-03-12T06:46:59.906Z,1015.52
2019-03-12T06:47:59.920Z,1015.52
2019-03-12T06:48:59.883Z,1015.52
2019-03-12T06:49:59.876Z,1015.43
2019-03-12T06:50:59.859Z,1015.39
2019-03-12T06:51:59.848Z,1015.45
2019-03-12T06:52:59.863Z,1015.41
2019-03-12T06:53:59.829Z,1015.43
2019-03-12T06:54:59.817Z,1015.38
2019-03-12T06:55:59.803Z,1015.35
2019-03-12T06:56:59.795Z,1015.32
2019-03-12T06:57:59.815Z,1015.39
2019-03-12T06:58:59.771Z,1015.34
2019-03-12T06:59:59.765Z,1015.34
2019-03-12T07:00:59.749Z,1015.35
2019-03-12T07:01:59.742Z,1015.30
2019-03-12T07:02:59.751Z,1015.28
2019-03-12T07:03:59.714Z,1015.25
2019-03-12T07:04:59.704Z,1015.29
2019-03-12T07:05:59.698Z,1015.26
2019-03-12T07:07:01.152Z,1015.23
2019-03-12T07:07:59.700Z,1015.21
2019-03-12T07:08:59.667Z,1015.22
2019-03-12T07:09:59.651Z,1015.19
2019-03-12T07:10:59.641Z,1015.18
2019-03-12T07:11:59.635Z,1015.15
2019-03-12T07:12:59.642Z,1015.14
2019-03-12T07:13:59.605Z,1015.14
2019-03-12T07:14:59.594Z,1015.13
2019-03-12T07:15:59.606Z,1015.03
2019-03-12T07:16:59.569Z,1015.05
2019-03-12T07:17:59.585Z,1015.05
2019-03-12T07:18:59.555Z,1015.04
2019-03-12T07:19:59.538Z,1015.02
2019-03-12T07:20:59.525Z,1015.04
2019-03-12T07:21:59.520Z,1014.97
2019-03-12T07:22:59.529Z,1014.89
2019-03-12T07:23:59.494Z,1014.83
2019-03-12T07:24:59.483Z,1014.84
2019-03-12T07:25:59.472Z,1014.84
2019-03-12T07:26:59.460Z,1014.80
2019-03-12T07:27:59.479Z,1014.79
2019-03-12T07:28:59.437Z,1014.76
2019-03-12T07:29:59.428Z,1014.78
2019-03-12T07:30:59.420Z,1014.68
2019-03-12T07:31:59.407Z,1014.69
2019-03-12T07:32:59.422Z,1014.72
2019-03-12T07:33:59.384Z,1014.69
2019-03-12T07:34:59.372Z,1014.70
2019-03-12T07:35:59.360Z,1014.66
2019-03-12T07:36:59.349Z,1014.65
2019-03-12T07:37:59.339Z,1014.62
2019-03-12T07:38:59.355Z,1014.60
2019-03-12T07:39:59.320Z,1014.59
2019-03-12T07:40:59.312Z,1014.57
2019-03-12T07:41:59.294Z,1014.51
2019-03-12T07:42:59.282Z,1014.49
2019-03-12T07:43:59.298Z,1014.45
2019-03-12T07:44:59.330Z,1014.38
2019-03-12T07:45:59.255Z,1014.41
2019-03-12T07:46:59.242Z,1014.44
2019-03-12T07:47:59.233Z,1014.39
2019-03-12T07:48:59.240Z,1014.39
2019-03-12T07:49:59.208Z,1014.38
2019-03-12T07:50:59.194Z,1014.27
2019-03-12T07:51:59.182Z,1014.32
2019-03-12T07:52:59.173Z,1014.28
2019-03-12T07:54:00.014Z,1014.21
2019-03-12T07:54:59.146Z,1014.25
2019-03-12T07:55:59.136Z,1014.27
2019-03-12T07:56:59.123Z,1014.22
2019-03-12T07:57:59.112Z,1014.22
2019-03-12T07:58:59.131Z,1014.14
2019-03-12T07:59:59.095Z,1014.18
2019-03-12T08:00:59.078Z,1014.20
2019-03-12T08:01:59.068Z,1014.13
2019-03-12T08:02:59.053Z,1014.13
2019-03-12T08:03:59.345Z,1014.12
2019-03-12T08:04:59.037Z,1014.10
2019-03-12T08:05:59.021Z,1014.04
2019-03-12T08:06:59.008Z,1014.01
2019-03-12T08:07:59.014Z,1013.96
2019-03-12T08:08:59.012Z,1013.94
2019-03-12T08:10:01.201Z,1013.95
2019-03-12T08:10:58.965Z,1013.95
2019-03-12T08:11:58.957Z,1013.97
2019-03-12T08:12:58.948Z,1013.97
2019-03-12T08:13:58.952Z,1014.01
2019-03-12T08:14:58.918Z,1014.07
2019-03-12T08:15:58.907Z,1014.03
2019-03-12T08:16:58.895Z,1013.99
2019-03-12T08:17:58.888Z,1013.95
2019-03-12T08:18:58.873Z,1013.90
2019-03-12T08:19:58.888Z,1013.92
2019-03-12T08:20:58.848Z,1013.85
2019-03-12T08:21:58.852Z,1013.82
2019-03-12T08:22:58.824Z,1013.91
2019-03-12T08:23:58.815Z,1013.80
2019-03-12T08:24:58.829Z,1013.81
2019-03-12T08:25:58.815Z,1013.82
2019-03-12T08:26:58.779Z,1013.84
2019-03-12T08:27:58.766Z,1013.66
2019-03-12T08:28:58.763Z,1013.62
2019-03-12T08:29:58.774Z,1013.59
2019-03-12T08:30:58.731Z,1013.55
2019-03-12T08:31:58.729Z,1013.54
2019-03-12T08:32:58.719Z,1013.55
2019-03-12T08:33:58.700Z,1013.57
2019-03-12T08:34:58.713Z,1013.55
2019-03-12T08:35:58.674Z,1013.50
2019-03-12T08:36:58.662Z,1013.47
2019-03-12T08:37:58.657Z,1013.35
2019-03-12T08:38:58.640Z,1013.34
2019-03-12T08:39:58.653Z,1013.35
2019-03-12T08:40:58.628Z,1013.37
2019-03-12T08:41:58.606Z,1013.28
2019-03-12T08:42:58.594Z,1013.30
2019-03-12T08:43:58.585Z,1013.22
2019-03-12T08:44:59.096Z,1013.26
2019-03-12T08:45:58.563Z,1013.24
2019-03-12T08:46:58.556Z,1013.26
2019-03-12T08:47:58.540Z,1013.22
2019-03-12T08:48:58.543Z,1013.23
2019-03-12T08:49:58.582Z,1013.33
2019-03-12T08:50:58.504Z,1013.30
2019-03-12T08:51:58.495Z,1013.35
2019-03-12T08:52:58.485Z,1013.40
2019-03-12T08:53:58.472Z,1013.37
2019-03-12T08:54:58.484Z,1013.37
2019-03-12T08:55:58.445Z,1013.35
2019-03-12T08:56:58.443Z,1013.30
2019-03-12T08:57:58.425Z,1013.31
2019-03-12T08:58:58.418Z,1013.25
2019-03-12T08:59:58.426Z,1013.23
2019-03-12T09:00:58.391Z,1013.09
2019-03-12T09:01:58.381Z,1013.20
2019-03-12T09:02:58.371Z,1013.04
2019-03-12T09:03:58.356Z,1013.03
2019-03-12T09:04:58.370Z,1013.05
2019-03-12T09:05:58.334Z,1012.98
2019-03-12T09:06:58.324Z,1013.06
2019-03-12T09:07:58.317Z,1012.96
2019-03-12T09:08:58.302Z,1013.06
2019-03-12T09:09:58.314Z,1012.92
2019-03-12T09:10:58.278Z,1012.96
2019-03-12T09:11:58.270Z,1012.93
2019-03-12T09:12:58.267Z,1012.92
2019-03-12T09:13:58.246Z,1012.90
2019-03-12T09:14:58.236Z,1012.84
2019-03-12T09:15:58.248Z,1012.86
2019-03-12T09:16:58.215Z,1012.80
2019-03-12T09:17:58.202Z,1012.71
2019-03-12T09:19:01.072Z,1012.70
2019-03-12T09:19:58.188Z,1012.63
2019-03-12T09:20:58.191Z,1012.60
2019-03-12T09:21:58.154Z,1012.59
2019-03-12T09:22:58.144Z,1012.60
2019-03-12T09:23:58.133Z,1012.55
2019-03-12T09:24:58.157Z,1012.52
2019-03-12T09:25:58.109Z,1012.50
2019-03-12T09:26:58.098Z,1012.41
2019-03-12T09:27:58.092Z,1012.43
2019-03-12T09:28:58.079Z,1012.45
2019-03-12T09:29:58.066Z,1012.40
2019-03-12T09:30:58.078Z,1012.44
2019-03-12T09:31:58.051Z,1012.35
2019-03-12T09:32:58.035Z,1012.36
2019-03-12T09:33:58.020Z,1012.26
2019-03-12T09:34:58.010Z,1012.26
2019-03-12T09:35:58.021Z,1012.29
2019-03-12T09:36:57.987Z,1012.22
2019-03-12T09:37:57.983Z,1012.17
2019-03-12T09:38:57.982Z,1012.19
2019-03-12T09:39:57.950Z,1012.05
2019-03-12T09:40:57.974Z,1012.06
2019-03-12T09:41:57.929Z,1011.99
2019-03-12T09:42:57.917Z,1011.90
2019-03-12T09:43:57.912Z,1011.96
2019-03-12T09:44:57.895Z,1011.92
2019-03-12T09:45:57.913Z,1011.91
2019-03-12T09:46:57.875Z,1011.91
2019-03-12T09:47:57.861Z,1011.92
2019-03-12T09:48:57.853Z,1011.96
2019-03-12T09:49:57.837Z,1011.88
2019-03-12T09:50:57.857Z,1011.90
2019-03-12T09:51:57.817Z,1011.82
2019-03-12T09:52:57.810Z,1011.79
2019-03-12T09:53:57.795Z,1011.76
2019-03-12T09:54:57.805Z,1011.74
2019-03-12T09:55:57.796Z,1011.64
2019-03-12T09:56:57.765Z,1011.61
2019-03-12T09:57:57.754Z,1011.59
2019-03-12T09:58:57.740Z,1011.54
2019-03-12T09:59:57.858Z,1011.62
2019-03-12T10:00:57.745Z,1011.53
2019-03-12T10:01:59.509Z,1011.49
2019-03-12T10:02:57.698Z,1011.47
2019-03-12T10:03:57.699Z,1011.48
2019-03-12T10:04:57.675Z,1011.47
2019-03-12T10:05:57.687Z,1011.49
2019-03-12T10:06:57.648Z,1011.44
2019-03-12T10:07:57.635Z,1011.44
2019-03-12T10:08:57.627Z,1011.35
2019-03-12T10:09:57.626Z,1011.35
2019-03-12T10:10:57.629Z,1011.33
2019-03-12T10:11:57.596Z,1011.30
2019-03-12T10:12:57.585Z,1011.29
2019-03-12T10:13:57.570Z,1011.37
2019-03-12T10:14:57.593Z,1011.40
2019-03-12T10:15:57.579Z,1011.27
2019-03-12T10:16:57.539Z,1011.28
2019-03-12T10:17:57.525Z,1011.25
2019-03-12T10:18:57.517Z,1011.27
2019-03-12T10:19:57.499Z,1011.16
2019-03-12T10:20:57.523Z,1011.12
2019-03-12T10:21:57.482Z,1011.13
2019-03-12T10:22:57.466Z,1011.11
2019-03-12T10:23:57.455Z,1011.08
2019-03-12T10:24:57.475Z,1011.10
2019-03-12T10:25:57.434Z,1011.02
2019-03-12T10:26:57.449Z,1011.01
2019-03-12T10:27:57.408Z,1011.03
2019-03-12T10:28:57.404Z,1010.96
2019-03-12T10:29:57.386Z,1010.99
2019-03-12T10:30:57.378Z,1011.01
2019-03-12T10:31:57.390Z,1011.02
2019-03-12T10:32:57.358Z,1010.96
2019-03-12T10:33:57.341Z,1010.99
2019-03-12T10:34:57.333Z,1010.94
2019-03-12T10:35:57.426Z,1010.88
2019-03-12T10:37:10.861Z,1010.88
2019-03-12T10:37:58.295Z,1010.85
2019-03-12T10:38:57.285Z,1010.82
2019-03-12T10:39:57.281Z,1010.77
2019-03-12T10:40:57.262Z,1010.74
2019-03-12T10:41:57.277Z,1010.77
2019-03-12T10:42:57.240Z,1010.65
2019-03-12T10:43:57.269Z,1010.71
2019-03-12T10:44:57.220Z,1010.60
2019-03-12T10:45:57.214Z,1010.65
2019-03-12T10:46:57.222Z,1010.63
2019-03-12T10:47:57.183Z,1010.53
2019-03-12T10:48:57.171Z,1010.57
2019-03-12T10:49:57.162Z,1010.58
2019-03-12T10:50:57.151Z,1010.43
2019-03-12T10:51:57.161Z,1010.45
2019-03-12T10:52:57.130Z,1010.39
2019-03-12T10:53:57.129Z,1010.36
2019-03-12T10:54:57.110Z,1010.42
2019-03-12T10:55:57.096Z,1010.28
2019-03-12T10:56:57.113Z,1010.25
2019-03-12T10:57:57.073Z,1010.23
2019-03-12T10:58:57.060Z,1010.29
2019-03-12T10:59:57.051Z,1010.32
2019-03-12T11:00:57.036Z,1010.29
2019-03-12T11:01:57.060Z,1010.23
2019-03-12T11:02:57.021Z,1010.16
2019-03-12T11:03:57.005Z,1010.17
2019-03-12T11:04:56.992Z,1010.11
2019-03-12T11:05:56.981Z,1010.06
2019-03-12T11:06:56.969Z,1010.00
2019-03-12T11:07:57.018Z,1009.98
2019-03-12T11:08:56.952Z,1009.96
2019-03-12T11:09:56.940Z,1009.97
2019-03-12T11:10:56.928Z,1009.95
2019-03-12T11:11:56.920Z,1009.82
2019-03-12T11:12:56.925Z,1009.75
2019-03-12T11:13:56.891Z,1009.67
2019-03-12T11:14:56.882Z,1009.76
2019-03-12T11:15:56.869Z,1009.65
2019-03-12T11:16:56.857Z,1009.63
2019-03-12T11:17:56.870Z,1009.59
2019-03-12T11:18:56.841Z,1009.74
2019-03-12T11:19:56.828Z,1009.46
2019-03-12T11:20:58.803Z,1009.59
2019-03-12T11:21:56.801Z,1009.49
2019-03-12T11:22:56.812Z,1009.51
2019-03-12T11:23:56.776Z,1009.46
2019-03-12T11:24:56.764Z,1009.44
2019-03-12T11:25:56.755Z,1009.39
2019-03-12T11:26:56.744Z,1009.41
2019-03-12T11:27:56.761Z,1009.58
2019-03-12T11:28:56.720Z,1009.51
2019-03-12T11:29:56.709Z,1009.54
2019-03-12T11:30:56.698Z,1009.47
2019-03-12T11:31:56.684Z,1009.42
2019-03-12T11:32:56.700Z,1009.44
2019-03-12T11:33:56.670Z,1009.40
2019-03-12T11:34:56.651Z,1009.45
2019-03-12T11:35:56.691Z,1009.34
2019-03-12T11:36:56.630Z,1009.31
2019-03-12T11:37:56.622Z,1009.30
2019-03-12T11:38:56.649Z,1009.33
2019-03-12T11:39:56.597Z,1009.31
2019-03-12T11:40:56.584Z,1009.27
2019-03-12T11:41:56.581Z,1009.18
2019-03-12T11:42:56.579Z,1009.22
2019-03-12T11:43:56.582Z,1009.18
2019-03-12T11:44:56.538Z,1009.10
2019-03-12T11:45:56.527Z,1009.07
2019-03-12T11:46:56.517Z,1009.09
2019-03-12T11:47:56.513Z,1009.06
2019-03-12T11:48:56.547Z,1009.13
2019-03-12T11:49:56.483Z,1009.02
2019-03-12T11:50:56.473Z,1009.03
2019-03-12T11:51:56.487Z,1008.92
2019-03-12T11:52:58.847Z,1008.87
2019-03-12T11:53:56.488Z,1008.90
2019-03-12T11:54:56.442Z,1008.85
2019-03-12T11:55:56.430Z,1008.82
2019-03-12T11:56:56.404Z,1008.74
2019-03-12T11:57:56.391Z,1008.80
2019-03-12T11:58:56.435Z,1008.75
2019-03-12T11:59:56.385Z,1008.78
2019-03-12T12:00:56.413Z,1008.71
2019-03-12T12:01:56.346Z,1008.72
2019-03-12T12:03:00.422Z,1008.68
2019-03-12T12:03:56.352Z,1008.61
2019-03-12T12:04:56.315Z,1008.51